Terminal Aerodrome Forecast
Issued by NWS

Home | Current Version | Previous Version | Graphics & Text | Print | Product List | Glossary On
Versions: 1 2 3 4 5 6 7 8 9 10 11 12 13 14 15 16 17 18 19 20 21
313
FTUS43 KMPX 151241 AAA
TAFRWF
TAF AMD
KRWF 151241Z 1513/1612 31015G25KT P6SM OVC018
     FM151500 31017G25KT P6SM BKN022
     FM151900 31017G25KT P6SM BKN035
     FM152200 32013G22KT P6SM FEW035
     FM160200 32008KT P6SM FEW200=

USA.gov is the U.S. government's official web portal to all federal, state and local government web resources and services.